Time;durP1;ratioP1;P1;durP2;ratioP2;P2;SDS_P1;SDS_P2;PMS_P1;PMS_P2;Temp;Humidity;BMP_temperature;BMP_pressure;BME280_temperature;BME280_humidity;BME280_pressure;Samples;Min_cycle;Max_cycle;Signal;HPM_P1;HPM_P2
2023/02/28 00:02:10;;;;;;;;;;;;;;;25.24;27.33;101684.38;5055369;28;1090;-22
2023/02/28 00:04:35;;;;;;;;;;;;;;;25.25;27.32;101679.84;5059322;28;1092;-22
2023/02/28 00:07:01;;;;;;;;;;;;;;;25.23;27.48;101682.69;5058485;28;1121;-23
2023/02/28 00:09:26;;;;;;;;;;;;;;;25.27;27.36;101689.50;5059003;28;1110;-22
2023/02/28 00:11:52;;;;;;;;;;;;;;;25.29;27.44;101697.44;5058503;28;1075;-23
2023/02/28 00:14:17;;;;;;;;;;;;;;;25.24;27.39;101699.72;5058038;28;1063;-23
2023/02/28 00:16:42;;;;;;;;;;;;;;;25.28;27.52;101707.34;5058635;28;1125;-22
2023/02/28 00:19:08;;;;;;;;;;;;;;;25.29;27.43;101708.19;5058623;28;1944;-22
2023/02/28 00:21:33;;;;;;;;;;;;;;;25.23;27.70;101708.75;5058587;28;1262;-23
2023/02/28 00:23:59;;;;;;;;;;;;;;;25.27;27.46;101702.09;5058542;28;1136;-22
2023/02/28 00:26:24;;;;;;;;;;;;;;;25.13;27.73;101709.66;5058805;28;1055;-24
2023/02/28 00:28:52;;;;;;;;;;;;;;;25.15;27.60;101696.03;5058982;28;1138;-25
2023/02/28 00:31:18;;;;;;;;;;;;;;;25.08;27.88;101706.53;5058553;28;1170;-24
2023/02/28 00:33:43;;;;;;;;;;;;;;;25.29;27.80;101705.50;5058834;28;1098;-22
2023/02/28 00:36:09;;;;;;;;;;;;;;;25.19;27.51;101700.97;5056726;28;1119;-23
2023/02/28 00:38:37;;;;;;;;;;;;;;;25.05;27.80;101699.63;5058978;28;1983;-25
2023/02/28 00:41:06;;;;;;;;;;;;;;;25.15;27.66;101707.66;5056959;28;1345;-22
2023/02/28 00:43:35;;;;;;;;;;;;;;;25.50;27.29;101713.34;5058582;28;1151;-23
2023/02/28 00:46:00;;;;;;;;;;;;;;;25.25;27.73;101714.84;5057050;28;1209;-23
2023/02/28 00:48:26;;;;;;;;;;;;;;;25.15;27.89;101698.72;5049250;28;1189;-24
2023/02/28 00:50:51;;;;;;;;;;;;;;;25.16;27.85;101698.59;5055892;28;1102;-24
2023/02/28 00:53:17;;;;;;;;;;;;;;;25.12;27.89;101707.09;5057943;28;1106;-25
2023/02/28 00:55:42;;;;;;;;;;;;;;;25.28;27.75;101703.78;5056281;28;994;-24
2023/02/28 00:58:08;;;;;;;;;;;;;;;25.28;27.76;101701.09;5056447;28;1084;-23
2023/02/28 01:00:33;;;;;;;;;;;;;;;25.22;27.88;101702.56;5057343;28;1979;-23
2023/02/28 01:02:58;;;;;;;;;;;;;;;25.24;27.70;101697.84;5057640;28;1000;-23
2023/02/28 01:05:24;;;;;;;;;;;;;;;25.13;27.85;101695.34;5057477;28;1207;-25
2023/02/28 01:07:49;;;;;;;;;;;;;;;25.08;28.06;101698.47;5073337;28;1415;-25
2023/02/28 01:10:15;;;;;;;;;;;;;;;25.23;27.89;101704.22;5057702;28;1178;-22
2023/02/28 01:12:40;;;;;;;;;;;;;;;25.25;27.73;101714.84;5057865;28;1159;-24
2023/02/28 01:15:09;;;;;;;;;;;;;;;25.24;27.83;101735.53;5055769;28;1221;-22
2023/02/28 01:17:34;;;;;;;;;;;;;;;25.14;27.93;101737.44;5046764;28;1102;-24
2023/02/28 01:20:00;;;;;;;;;;;;;;;25.14;28.02;101726.66;5052573;28;1988;-23
2023/02/28 01:22:25;;;;;;;;;;;;;;;25.13;28.04;101731.19;5056396;28;1528;-23
2023/02/28 01:24:51;;;;;;;;;;;;;;;25.17;28.07;101726.38;5057162;28;1052;-23
2023/02/28 01:27:16;;;;;;;;;;;;;;;25.27;27.67;101729.03;5057311;28;1063;-27
2023/02/28 01:29:41;;;;;;;;;;;;;;;25.18;28.30;101730.75;5057207;28;1090;-22
2023/02/28 01:32:08;;;;;;;;;;;;;;;25.26;27.93;101733.56;5057302;28;1134;-25
2023/02/28 01:34:34;;;;;;;;;;;;;;;25.22;27.80;101721.41;5055986;28;1170;-23
2023/02/28 01:37:00;;;;;;;;;;;;;;;25.27;28.07;101716.44;5047806;28;1063;-24
2023/02/28 01:39:25;;;;;;;;;;;;;;;25.22;28.08;101731.31;5052036;28;1902;-22
2023/02/28 01:41:51;;;;;;;;;;;;;;;25.28;28.15;101745.03;5057361;28;1123;-22
2023/02/28 01:44:35;;;;;;;;;;;;;;;25.16;28.36;101755.13;5057043;28;1059;-22
2023/02/28 01:47:01;;;;;;;;;;;;;;;25.14;28.16;101738.25;5056974;28;1127;-24
2023/02/28 01:49:28;;;;;;;;;;;;;;;25.29;27.90;101744.03;5056802;28;1110;-23
2023/02/28 01:51:54;;;;;;;;;;;;;;;25.48;27.72;101752.19;5056917;28;1264;-22
2023/02/28 01:54:24;;;;;;;;;;;;;;;25.31;27.60;101744.75;5057078;28;1039;-23
2023/02/28 01:57:03;;;;;;;;;;;;;;;25.14;27.89;101732.03;5054732;28;1160;-24
2023/02/28 01:59:45;;;;;;;;;;;;;;;25.16;28.22;101732.72;5042992;28;1902;-25
2023/02/28 02:02:10;;;;;;;;;;;;;;;25.08;28.15;101722.69;5055954;28;1253;-23
2023/02/28 02:04:40;;;;;;;;;;;;;;;25.17;28.08;101745.22;5057450;28;1131;-24
2023/02/28 02:07:05;;;;;;;;;;;;;;;25.32;27.78;101751.00;5056249;28;1128;-22
2023/02/28 02:09:31;;;;;;;;;;;;;;;25.16;27.92;101744.34;5055469;28;1064;-24
2023/02/28 02:11:56;;;;;;;;;;;;;;;25.16;28.19;101738.13;5056470;28;1099;-25
2023/02/28 02:14:22;;;;;;;;;;;;;;;25.19;28.06;101741.38;5038517;28;1135;-24
2023/02/28 02:16:53;;;;;;;;;;;;;;;25.16;27.95;101743.50;5056000;28;1131;-22
2023/02/28 02:19:37;;;;;;;;;;;;;;;25.10;28.10;101752.16;5056533;28;1910;-26
2023/02/28 02:22:26;;;;;;;;;;;;;;;25.09;28.22;101756.69;5054857;28;1218;-24
2023/02/28 02:24:52;;;;;;;;;;;;;;;25.15;28.26;101739.97;5063924;28;1322;-25
2023/02/28 02:27:36;;;;;;;;;;;;;;;25.10;27.93;101742.25;5055734;28;1110;-24
2023/02/28 02:30:20;;;;;;;;;;;;;;;25.19;28.06;101729.78;5056152;28;1043;-23
2023/02/28 02:32:58;;;;;;;;;;;;;;;25.10;28.11;101734.19;5056259;28;1067;-22
2023/02/28 02:35:25;;;;;;;;;;;;;;;25.03;28.23;101736.59;5055186;28;1131;-22
2023/02/28 02:37:50;;;;;;;;;;;;;;;24.98;28.48;101751.47;5055828;28;1059;-25
2023/02/28 02:40:22;;;;;;;;;;;;;;;25.01;28.39;101753.88;5056078;28;1906;-23
2023/02/28 02:42:51;;;;;;;;;;;;;;;25.16;28.24;101755.13;5054831;28;1103;-22
2023/02/28 02:45:17;;;;;;;;;;;;;;;25.24;27.93;101751.69;5055003;28;1067;-22
2023/02/28 02:47:42;;;;;;;;;;;;;;;25.09;28.21;101756.69;5056040;28;1182;-25
2023/02/28 02:50:08;;;;;;;;;;;;;;;25.29;27.86;101770.97;5037621;28;933;-23
2023/02/28 02:52:35;;;;;;;;;;;;;;;25.13;28.02;101763.50;5054996;28;1028;-22
2023/02/28 02:55:00;;;;;;;;;;;;;;;25.17;28.03;101764.88;5055007;28;1076;-23
2023/02/28 02:57:33;;;;;;;;;;;;;;;25.06;28.25;101744.38;5054797;28;1112;-23
2023/02/28 02:59:59;;;;;;;;;;;;;;;25.33;27.73;101747.28;5054745;28;1918;-24
2023/02/28 03:02:25;;;;;;;;;;;;;;;25.06;28.01;101744.38;5051287;28;1143;-22
2023/02/28 03:05:00;;;;;;;;;;;;;;;25.16;28.29;101751.56;5042459;28;1138;-23
2023/02/28 03:07:27;;;;;;;;;;;;;;;25.15;28.32;101757.97;5042890;28;1120;-23
2023/02/28 03:09:53;;;;;;;;;;;;;;;25.11;28.21;101765.47;5058671;28;1120;-23
2023/02/28 03:12:18;;;;;;;;;;;;;;;25.05;28.41;101774.13;5047017;28;1001;-24
2023/02/28 03:14:58;;;;;;;;;;;;;;;25.12;28.14;101775.28;5058592;28;884;-22
2023/02/28 03:17:28;;;;;;;;;;;;;;;25.04;28.42;101794.00;5064105;28;1349;-22
2023/02/28 03:20:13;;;;;;;;;;;;;;;24.93;28.45;101790.44;5058226;28;1914;-22
2023/02/28 03:22:57;;;;;;;;;;;;;;;25.05;28.60;101791.16;5058773;28;1157;-24
2023/02/28 03:25:42;;;;;;;;;;;;;;;25.01;28.41;101783.47;5046535;28;1052;-22
2023/02/28 03:28:08;;;;;;;;;;;;;;;25.12;28.25;101766.34;5052308;28;1374;-24
2023/02/28 03:30:39;;;;;;;;;;;;;;;25.24;27.76;101770.53;5059561;28;1182;-22
2023/02/28 03:33:05;;;;;;;;;;;;;;;25.28;28.04;101763.88;5058614;28;1180;-22
2023/02/28 03:35:38;;;;;;;;;;;;;;;25.03;28.30;101768.03;5059989;28;1106;-22
2023/02/28 03:38:08;;;;;;;;;;;;;;;25.15;28.37;101779.50;5059108;28;1468;-23
2023/02/28 03:40:34;;;;;;;;;;;;;;;25.05;28.42;101768.75;5059042;28;1910;-23
2023/02/28 03:43:01;;;;;;;;;;;;;;;25.16;28.49;101765.03;5058055;28;1035;-27
2023/02/28 03:45:28;;;;;;;;;;;;;;;25.02;28.41;101753.75;5059758;28;1131;-22
2023/02/28 03:47:56;;;;;;;;;;;;;;;25.01;28.45;101773.56;5058105;28;1168;-27
2023/02/28 03:50:26;;;;;;;;;;;;;;;25.01;28.31;101780.78;5058295;28;1043;-26
2023/02/28 03:53:00;;;;;;;;;;;;;;;25.05;28.21;101793.84;5059089;28;1056;-24
2023/02/28 03:55:26;;;;;;;;;;;;;;;25.07;28.31;101799.91;5058086;28;1215;-21
2023/02/28 03:57:52;;;;;;;;;;;;;;;25.10;28.21;101804.19;5057904;28;1055;-22
2023/02/28 04:00:18;;;;;;;;;;;;;;;25.07;28.27;101801.78;5058453;28;1977;-24
2023/02/28 04:02:44;;;;;;;;;;;;;;;25.07;28.19;101804.47;5057483;28;984;-22
2023/02/28 04:05:09;;;;;;;;;;;;;;;25.04;28.40;101802.06;5058813;28;1183;-24
2023/02/28 04:07:35;;;;;;;;;;;;;;;24.99;28.40;101802.47;5057947;28;1152;-23
2023/02/28 04:10:00;;;;;;;;;;;;;;;25.04;28.43;101799.38;5058879;28;1143;-24
2023/02/28 04:12:26;;;;;;;;;;;;;;;25.22;28.25;101802.19;5038779;28;1100;-24
2023/02/28 04:14:51;;;;;;;;;;;;;;;25.38;28.01;101798.03;5053748;28;1430;-23
2023/02/28 04:17:16;;;;;;;;;;;;;;;25.24;27.92;101821.72;5042275;28;1110;-24
2023/02/28 04:19:42;;;;;;;;;;;;;;;25.22;28.40;101804.88;5048856;28;1910;-21
2023/02/28 04:22:08;;;;;;;;;;;;;;;25.27;28.37;101793.66;5054187;28;1147;-23
2023/02/28 04:24:33;;;;;;;;;;;;;;;23.71;26.26;101786.88;5058701;28;1102;-21
2023/02/28 04:26:58;;;;;;;;;;;;;;;23.58;26.01;101790.66;5058220;28;909;-22
2023/02/28 04:29:25;;;;;;;;;;;;;;;21.95;26.89;101795.00;5054285;28;1341;-24
2023/02/28 04:31:53;;;;;;;;;;;;;;;21.70;27.17;101790.72;5038689;28;1139;-21
2023/02/28 04:34:18;;;;;;;;;;;;;;;23.32;24.97;101793.72;5038427;28;1151;-21
2023/02/28 04:36:45;;;;;;;;;;;;;;;25.66;22.75;101779.25;5056572;28;1063;-23
2023/02/28 04:39:11;;;;;;;;;;;;;;;26.89;21.23;101778.03;5042629;28;1906;-23
2023/02/28 04:41:36;;;;;;;;;;;;;;;26.96;21.75;101780.13;5050563;28;1405;-23
2023/02/28 04:44:02;;;;;;;;;;;;;;;27.28;22.05;101783.25;5058143;28;1298;-25
2023/02/28 04:46:27;;;;;;;;;;;;;;;27.34;22.38;101785.31;5040982;28;1199;-22
2023/02/28 04:48:54;;;;;;;;;;;;;;;27.43;22.31;101778.09;5038164;28;1032;-25
2023/02/28 04:51:19;;;;;;;;;;;;;;;27.58;22.54;101762.97;5038220;28;1171;-22
2023/02/28 04:53:45;;;;;;;;;;;;;;;27.72;22.70;101768.81;5051141;28;1143;-22
2023/02/28 04:56:11;;;;;;;;;;;;;;;27.74;22.49;101783.03;5058036;28;1063;-23
2023/02/28 04:58:37;;;;;;;;;;;;;;;27.93;22.62;101791.88;5058369;28;1903;-24
2023/02/28 05:01:22;;;;;;;;;;;;;;;28.07;22.54;101785.84;5050079;28;1250;-27
2023/02/28 05:03:48;;;;;;;;;;;;;;;27.28;22.14;101789.47;5040283;28;1631;-25
2023/02/28 05:06:14;;;;;;;;;;;;;;;26.08;22.20;101777.91;5057547;28;1141;-26
2023/02/28 05:08:39;;;;;;;;;;;;;;;26.87;21.44;101776.50;5057702;28;1064;-25
2023/02/28 05:11:06;;;;;;;;;;;;;;;26.84;21.05;101771.44;5057826;28;1109;-23
2023/02/28 05:13:31;;;;;;;;;;;;;;;26.65;20.90;101789.47;5056634;28;1070;-23
2023/02/28 05:15:57;;;;;;;;;;;;;;;26.59;20.54;101792.81;5057060;28;834;-23
2023/02/28 05:18:22;;;;;;;;;;;;;;;26.92;20.30;101800.34;5057620;28;1536;-29
2023/02/28 05:20:48;;;;;;;;;;;;;;;27.48;19.62;101798.22;5058157;28;1906;-30
2023/02/28 05:23:13;;;;;;;;;;;;;;;25.18;22.25;101804.31;5057236;28;1118;-25
2023/02/28 05:25:39;;;;;;;;;;;;;;;25.30;22.77;101807.69;5057376;28;1079;-27
2023/02/28 05:28:04;;;;;;;;;;;;;;;27.00;20.69;101822.84;5057043;28;922;-26
2023/02/28 05:30:31;;;;;;;;;;;;;;;27.18;21.46;101838.22;5057460;28;1092;-28
2023/02/28 05:32:56;;;;;;;;;;;;;;;25.55;23.48;101837.69;5057008;28;1508;-30
2023/02/28 05:35:22;;;;;;;;;;;;;;;25.50;23.84;101845.34;5057593;28;1117;-25
2023/02/28 05:37:47;;;;;;;;;;;;;;;26.73;22.19;101859.72;5057354;28;1163;-26
2023/02/28 05:40:13;;;;;;;;;;;;;;;26.92;22.37;101879.50;5057234;28;1989;-25
2023/02/28 05:42:38;;;;;;;;;;;;;;;25.94;24.08;101889.81;5057121;28;1019;-26
2023/02/28 05:45:04;;;;;;;;;;;;;;;26.43;23.35;101886.06;5057310;28;1050;-24
2023/02/28 05:47:29;;;;;;;;;;;;;;;26.92;23.14;101893.00;5057325;28;1214;-24
2023/02/28 05:49:55;;;;;;;;;;;;;;;27.10;22.61;101894.84;5056501;28;1106;-27
2023/02/28 05:52:20;;;;;;;;;;;;;;;27.53;22.22;101892.31;5056765;28;967;-25
2023/02/28 05:54:46;;;;;;;;;;;;;;;27.62;22.36;101890.53;5056549;28;1083;-23
2023/02/28 05:57:11;;;;;;;;;;;;;;;27.57;22.48;101877.50;5057125;28;1000;-24
2023/02/28 05:59:39;;;;;;;;;;;;;;;26.53;23.81;101877.91;5056787;28;1910;-25
2023/02/28 06:02:05;;;;;;;;;;;;;;;26.73;23.99;101880.47;5056384;28;1056;-24
2023/02/28 06:04:30;;;;;;;;;;;;;;;27.66;22.54;101882.97;5056622;28;1117;-26
2023/02/28 06:06:57;;;;;;;;;;;;;;;26.51;23.94;101894.25;5056708;28;1095;-27
2023/02/28 06:09:22;;;;;;;;;;;;;;;26.17;24.42;101894.81;5056941;28;991;-23
2023/02/28 06:11:48;;;;;;;;;;;;;;;27.34;23.03;101907.72;5056738;28;1051;-26
2023/02/28 06:14:17;;;;;;;;;;;;;;;27.47;22.97;101910.03;5056129;28;1047;-23
2023/02/28 06:16:42;;;;;;;;;;;;;;;27.71;22.81;101902.28;5056422;28;1197;-24
2023/02/28 06:19:08;;;;;;;;;;;;;;;26.85;23.86;101906.25;5056671;28;1973;-24
2023/02/28 06:21:33;;;;;;;;;;;;;;;26.23;24.64;101886.13;5056712;28;1131;-24
2023/02/28 06:23:59;;;;;;;;;;;;;;;27.22;23.67;101892.78;5056434;28;1090;-24
2023/02/28 06:26:24;;;;;;;;;;;;;;;27.73;23.05;101900.25;5055994;28;1031;-25
2023/02/28 06:28:50;;;;;;;;;;;;;;;27.93;22.68;101898.19;5056100;28;1139;-28
2023/02/28 06:31:15;;;;;;;;;;;;;;;26.76;24.23;101891.81;5045984;28;1165;-24
2023/02/28 06:33:42;;;;;;;;;;;;;;;26.62;25.32;101895.03;5044595;28;1134;-26
2023/02/28 06:36:08;;;;;;;;;;;;;;;27.42;24.23;101887.19;5056380;28;1059;-24
2023/02/28 06:38:33;;;;;;;;;;;;;;;27.61;24.27;101883.44;5056106;28;1171;-24
2023/02/28 06:40:59;;;;;;;;;;;;;;;27.87;23.77;101877.19;5055834;28;1914;-26
2023/02/28 06:43:24;;;;;;;;;;;;;;;26.89;24.41;101883.31;5045755;28;1270;-24
2023/02/28 06:45:50;;;;;;;;;;;;;;;26.78;25.39;101881.72;5050711;28;1095;-19
2023/02/28 06:48:16;;;;;;;;;;;;;;;27.41;24.52;101885.50;5055691;28;990;-20
2023/02/28 06:50:41;;;;;;;;;;;;;;;27.45;24.58;101895.84;5052545;28;990;-18
2023/02/28 06:53:06;;;;;;;;;;;;;;;27.63;23.96;101898.50;5046477;28;1036;-18
2023/02/28 06:55:32;;;;;;;;;;;;;;;26.70;24.99;101886.19;5048532;28;1128;-19
2023/02/28 06:57:57;;;;;;;;;;;;;;;26.56;25.92;101890.25;5035829;28;1293;-19
2023/02/28 07:00:24;;;;;;;;;;;;;;;27.33;24.95;101883.56;5035637;28;1902;-19
2023/02/28 07:02:50;;;;;;;;;;;;;;;27.53;24.59;101881.53;5038437;28;1278;-19
2023/02/28 07:05:15;;;;;;;;;;;;;;;27.08;24.63;101876.13;5045845;28;1163;-19
2023/02/28 07:07:43;;;;;;;;;;;;;;;26.80;25.16;101881.56;5050537;28;1079;-19
2023/02/28 07:10:10;;;;;;;;;;;;;;;27.48;24.85;101886.53;5045038;28;1060;-19
2023/02/28 07:12:36;;;;;;;;;;;;;;;27.48;24.33;101883.84;5042764;28;1179;-19
2023/02/28 07:15:01;;;;;;;;;;;;;;;27.67;24.33;101884.66;5055487;28;1114;-19
2023/02/28 07:17:26;;;;;;;;;;;;;;;27.07;24.98;101889.78;5055750;28;1086;-19
2023/02/28 07:19:52;;;;;;;;;;;;;;;26.60;25.99;101886.25;5055878;28;1914;-19
2023/02/28 07:22:17;;;;;;;;;;;;;;;27.46;24.74;101888.59;5040537;28;1041;-19
2023/02/28 07:24:43;;;;;;;;;;;;;;;27.57;24.66;101896.44;5054804;28;1128;-18
2023/02/28 07:27:08;;;;;;;;;;;;;;;27.83;24.58;101898.31;5055372;28;1070;-18
2023/02/28 07:29:34;;;;;;;;;;;;;;;27.14;24.79;101896.25;5042100;28;1109;-19
2023/02/28 07:31:59;;;;;;;;;;;;;;;26.84;25.37;101884.81;5055641;28;1167;-19
2023/02/28 07:34:25;;;;;;;;;;;;;;;27.60;24.89;101888.00;5042617;28;1210;-19
2023/02/28 07:36:53;;;;;;;;;;;;;;;27.61;24.81;101886.97;5054146;28;1299;-19
2023/02/28 07:39:18;;;;;;;;;;;;;;;27.87;24.85;101877.19;5042539;28;1898;-18
2023/02/28 07:41:44;;;;;;;;;;;;;;;27.27;25.26;101860.75;5054891;28;1018;-19
2023/02/28 07:44:10;;;;;;;;;;;;;;;26.81;25.56;101866.22;5043209;28;1111;-19
2023/02/28 07:46:36;;;;;;;;;;;;;;;27.71;24.72;101876.09;5055200;28;1181;-19
2023/02/28 07:49:02;;;;;;;;;;;;;;;27.65;24.88;101874.00;5054990;28;1068;-19
2023/02/28 07:51:30;;;;;;;;;;;;;;;27.82;24.49;101869.56;5042365;28;1151;-18
2023/02/28 07:53:56;;;;;;;;;;;;;;;27.07;25.22;101869.03;5034981;28;1282;-18
2023/02/28 07:56:21;;;;;;;;;;;;;;;26.79;26.17;101877.19;5041695;28;1273;-18
2023/02/28 07:58:47;;;;;;;;;;;;;;;27.61;25.04;101881.56;5049982;28;1981;-19
2023/02/28 08:01:12;;;;;;;;;;;;;;;27.71;24.78;101883.38;5054404;28;1110;-18
2023/02/28 08:03:38;;;;;;;;;;;;;;;27.79;24.85;101887.97;5058828;28;1034;-18
2023/02/28 08:06:04;;;;;;;;;;;;;;;27.12;25.38;101904.53;5056534;28;1082;-18
2023/02/28 08:08:31;;;;;;;;;;;;;;;26.88;25.70;101914.03;5047929;28;1103;-18
2023/02/28 08:11:00;;;;;;;;;;;;;;;27.65;25.08;101919.94;5045675;28;1222;-19
2023/02/28 08:13:27;;;;;;;;;;;;;;;27.82;25.16;101914.69;5059303;28;1113;-18
2023/02/28 08:15:52;;;;;;;;;;;;;;;27.90;25.03;101917.44;5057783;28;1091;-18
2023/02/28 08:18:18;;;;;;;;;;;;;;;26.87;25.66;101912.34;5048610;28;1119;-19
2023/02/28 08:20:43;;;;;;;;;;;;;;;26.65;25.98;101913.63;5055447;28;1914;-19
2023/02/28 08:23:09;;;;;;;;;;;;;;;27.62;25.23;101922.97;5049087;28;1147;-19
2023/02/28 08:25:34;;;;;;;;;;;;;;;27.61;25.07;101910.47;5054774;28;1186;-19
2023/02/28 08:28:00;;;;;;;;;;;;;;;27.78;25.00;101907.91;5053588;28;1214;-19
2023/02/28 08:30:25;;;;;;;;;;;;;;;26.78;26.17;101913.25;5046119;28;1063;-19
2023/02/28 08:32:51;;;;;;;;;;;;;;;26.81;26.53;101912.94;5058262;28;1055;-18
2023/02/28 08:35:16;;;;;;;;;;;;;;;27.79;25.33;101918.56;5058337;28;1074;-19
2023/02/28 08:37:42;;;;;;;;;;;;;;;27.75;25.15;101919.88;5044877;28;1094;-19
2023/02/28 08:40:07;;;;;;;;;;;;;;;27.81;25.12;101913.81;5057502;28;1901;-19
2023/02/28 08:42:33;;;;;;;;;;;;;;;27.21;25.70;101920.81;5058558;28;1031;-19
2023/02/28 08:44:58;;;;;;;;;;;;;;;26.85;26.32;101918.91;5050466;28;1197;-18
2023/02/28 08:47:24;;;;;;;;;;;;;;;27.56;25.14;101923.63;5052372;28;1045;-19
2023/02/28 08:49:49;;;;;;;;;;;;;;;27.19;22.88;101915.56;5057739;28;1066;-18
2023/02/28 08:52:15;;;;;;;;;;;;;;;27.17;23.92;101917.56;5044679;28;1547;-18
2023/02/28 08:54:40;;;;;;;;;;;;;;;27.98;23.04;101919.34;5058219;28;1226;-18
2023/02/28 08:57:05;;;;;;;;;;;;;;;28.19;23.54;101920.81;5057648;28;1095;-18
2023/02/28 08:59:31;;;;;;;;;;;;;;;28.49;23.25;101918.59;5045114;28;1967;-18
2023/02/28 09:01:56;;;;;;;;;;;;;;;28.68;23.23;101927.41;5057483;28;1110;-18
2023/02/28 09:04:22;;;;;;;;;;;;;;;28.76;23.21;101924.72;5056330;28;837;-19
2023/02/28 09:06:48;;;;;;;;;;;;;;;28.92;22.98;101923.09;5050499;28;1195;-18
2023/02/28 09:09:14;;;;;;;;;;;;;;;28.92;23.05;101909.53;5050202;28;1135;-19
2023/02/28 09:11:39;;;;;;;;;;;;;;;29.13;23.06;101913.66;5051195;28;1053;-18
2023/02/28 09:14:05;;;;;;;;;;;;;;;29.27;22.73;101912.13;5049341;28;1069;-19
2023/02/28 09:16:30;;;;;;;;;;;;;;;29.03;22.92;101913.84;5056989;28;1276;-18
2023/02/28 09:18:56;;;;;;;;;;;;;;;29.23;22.74;101917.03;5046072;28;1906;-19
2023/02/28 09:21:21;;;;;;;;;;;;;;;29.43;22.47;101913.97;5055874;28;1119;-19
2023/02/28 09:23:48;;;;;;;;;;;;;;;29.40;22.52;101908.91;5057108;28;1078;-19
2023/02/28 09:26:20;;;;;;;;;;;;;;;29.40;22.56;101912.47;5044273;28;1186;-19
2023/02/28 09:28:45;;;;;;;;;;;;;;;29.37;22.72;101915.53;5049251;28;1078;-19
2023/02/28 09:31:20;;;;;;;;;;;;;;;29.47;22.66;101912.63;5050391;28;1190;-19
2023/02/28 09:33:46;;;;;;;;;;;;;;;29.14;22.93;101913.50;5051327;28;1215;-19
2023/02/28 09:36:11;;;;;;;;;;;;;;;29.32;22.77;101915.19;5056873;28;1159;-19
2023/02/28 09:38:37;;;;;;;;;;;;;;;28.72;23.14;101917.97;5057136;28;1059;-19
2023/02/28 09:41:03;;;;;;;;;;;;;;;27.42;25.32;101912.34;5054855;28;1910;-19
2023/02/28 09:43:30;;;;;;;;;;;;;;;28.43;24.01;101916.50;5055854;28;1148;-19
2023/02/28 09:46:14;;;;;;;;;;;;;;;29.14;23.00;101924.34;5055477;28;984;-19
2023/02/28 09:48:42;;;;;;;;;;;;;;;29.40;22.50;101933.28;5049693;28;1047;-19
2023/02/28 09:51:26;;;;;;;;;;;;;;;29.35;22.65;101933.81;5056101;28;1071;-19
2023/02/28 09:53:52;;;;;;;;;;;;;;;29.37;22.64;101937.22;5052880;28;1034;-19
2023/02/28 09:56:27;;;;;;;;;;;;;;;29.41;22.42;101933.13;5046685;28;1004;-19
2023/02/28 09:59:00;;;;;;;;;;;;;;;29.36;22.57;101943.66;5055568;28;1990;-18
2023/02/28 10:01:41;;;;;;;;;;;;;;;29.39;22.58;101935.19;5056587;28;1051;-19
2023/02/28 10:04:13;;;;;;;;;;;;;;;29.49;22.28;101945.84;5056665;28;1514;-19
2023/02/28 10:06:41;;;;;;;;;;;;;;;29.65;22.19;101944.16;5025483;28;1199;-19
2023/02/28 10:09:26;;;;;;;;;;;;;;;29.69;22.13;101951.78;5055342;28;1092;-19
2023/02/28 10:11:52;;;;;;;;;;;;;;;29.72;22.51;101950.59;5043088;28;1415;-19
2023/02/28 10:14:17;;;;;;;;;;;;;;;29.37;22.92;101939.91;5045251;28;1213;-19
2023/02/28 10:16:51;;;;;;;;;;;;;;;28.10;24.71;101945.13;5053571;28;1206;-19
2023/02/28 10:19:22;;;;;;;;;;;;;;;28.76;24.35;101943.69;5043929;28;1934;-19
2023/02/28 10:21:47;;;;;;;;;;;;;;;29.43;23.22;101941.09;5054938;28;1021;-19
2023/02/28 10:24:28;;;;;;;;;;;;;;;29.56;22.94;101921.63;5056327;28;1043;-19
2023/02/28 10:26:56;;;;;;;;;;;;;;;29.58;23.07;101919.56;5056640;28;1087;-19
2023/02/28 10:29:22;;;;;;;;;;;;;;;29.64;23.11;101918.91;5043037;28;1035;-19
2023/02/28 10:31:47;;;;;;;;;;;;;;;28.74;24.11;101918.66;5056153;28;1056;-19
2023/02/28 10:34:13;;;;;;;;;;;;;;;28.26;24.48;101912.88;5054698;28;1039;-18
2023/02/28 10:36:39;;;;;;;;;;;;;;;29.55;23.35;101899.06;5054964;28;1067;-19
2023/02/28 10:39:23;;;;;;;;;;;;;;;28.69;23.92;101904.78;5054586;28;1878;-19
2023/02/28 10:41:49;;;;;;;;;;;;;;;27.72;25.36;101906.69;5054117;28;1207;-19
2023/02/28 10:44:19;;;;;;;;;;;;;;;28.78;24.28;101906.47;5055299;28;1203;-19
2023/02/28 10:46:44;;;;;;;;;;;;;;;29.04;23.83;101899.25;5054891;28;1212;-19
2023/02/28 10:49:23;;;;;;;;;;;;;;;29.11;23.72;101894.03;5054636;28;1274;-19
2023/02/28 10:51:52;;;;;;;;;;;;;;;29.38;23.33;101887.38;5054039;28;1163;-18
2023/02/28 10:54:22;;;;;;;;;;;;;;;29.36;23.27;101883.16;5054520;28;1200;-19
2023/02/28 10:57:11;;;;;;;;;;;;;;;29.51;23.03;101876.00;5055889;28;1230;-19
2023/02/28 10:59:36;;;;;;;;;;;;;;;29.64;23.16;101877.41;5042219;28;1981;-19
2023/02/28 11:02:02;;;;;;;;;;;;;;;29.62;23.19;101871.28;5055747;28;1059;-19
2023/02/28 11:04:29;;;;;;;;;;;;;;;29.46;23.47;101870.28;5052593;28;1115;-20
2023/02/28 11:07:16;;;;;;;;;;;;;;;29.48;23.43;101873.66;5048010;28;1227;-20
2023/02/28 11:09:43;;;;;;;;;;;;;;;28.78;23.92;101867.72;5052344;28;1286;-20
2023/02/28 11:12:19;;;;;;;;;;;;;;;27.94;25.44;101872.84;5053051;28;1333;-20
2023/02/28 11:14:48;;;;;;;;;;;;;;;29.09;23.78;101875.22;5045442;28;1269;-19
2023/02/28 11:17:15;;;;;;;;;;;;;;;29.47;23.30;101880.09;5044450;28;1393;-20
2023/02/28 11:19:44;;;;;;;;;;;;;;;29.30;20.19;101872.00;5054822;28;1910;-19
2023/02/28 11:22:10;;;;;;;;;;;;;;;27.75;23.95;101866.66;5056071;28;1024;-20
2023/02/28 11:24:43;;;;;;;;;;;;;;;28.24;22.50;101859.78;5050876;28;1071;-20
2023/02/28 11:27:27;;;;;;;;;;;;;;;28.35;22.42;101864.06;5048444;28;1195;-19
2023/02/28 11:29:52;;;;;;;;;;;;;;;28.83;22.70;101858.06;5051715;28;1124;-19
2023/02/28 11:32:24;;;;;;;;;;;;;;;29.20;22.55;101855.91;5042500;28;1077;-20
2023/02/28 11:35:03;;;;;;;;;;;;;;;29.20;22.74;101849.63;5059214;28;1190;-19
2023/02/28 11:37:29;;;;;;;;;;;;;;;29.44;22.24;101851.50;5057979;28;1147;-20
2023/02/28 11:39:54;;;;;;;;;;;;;;;29.48;22.50;101859.28;5058208;28;1905;-20
2023/02/28 11:42:19;;;;;;;;;;;;;;;28.86;22.96;101846.06;5053273;28;1018;-19
2023/02/28 11:45:03;;;;;;;;;;;;;;;27.42;24.77;101852.06;5051674;28;1264;-19
2023/02/28 11:47:34;;;;;;;;;;;;;;;28.72;23.68;101843.00;5051087;28;1091;-19
2023/02/28 11:50:18;;;;;;;;;;;;;;;28.62;23.46;101841.47;5053809;28;1044;-19
2023/02/28 11:52:56;;;;;;;;;;;;;;;27.36;25.11;101845.44;5058755;28;1034;-19
2023/02/28 11:55:21;;;;;;;;;;;;;;;28.55;23.71;101831.31;5059011;28;1023;-19
2023/02/28 11:58:05;;;;;;;;;;;;;;;29.55;22.41;101836.72;5059297;28;1031;-19
2023/02/28 12:00:49;;;;;;;;;;;;;;;27.69;24.57;101834.03;5047976;28;1898;-19
2023/02/28 12:03:33;;;;;;;;;;;;;;;27.99;24.52;101824.50;5057338;28;1254;-20
2023/02/28 12:06:11;;;;;;;;;;;;;;;28.72;23.43;101821.34;5058109;28;1143;-19
2023/02/28 12:08:39;;;;;;;;;;;;;;;28.76;23.66;101824.53;5057808;28;1215;-20
2023/02/28 12:11:07;;;;;;;;;;;;;;;28.93;23.36;101825.41;5056291;28;1242;-19
2023/02/28 12:13:53;;;;;;;;;;;;;;;29.17;23.17;101828.31;5047826;28;1139;-20
2023/02/28 12:16:21;;;;;;;;;;;;;;;29.37;22.68;101833.34;5044837;28;1142;-19
2023/02/28 12:18:47;;;;;;;;;;;;;;;29.37;22.71;101834.22;5056091;28;949;-19
2023/02/28 12:21:21;;;;;;;;;;;;;;;29.52;22.60;101839.78;5046336;28;1975;-18
2023/02/28 12:23:50;;;;;;;;;;;;;;;29.58;22.73;101840.94;5056711;28;1059;-18
2023/02/28 12:26:22;;;;;;;;;;;;;;;29.71;22.52;101843.16;5048428;28;1095;-19
2023/02/28 12:28:55;;;;;;;;;;;;;;;29.60;22.83;101844.34;5049157;28;1143;-19
2023/02/28 12:31:24;;;;;;;;;;;;;;;28.58;23.48;101835.53;5058131;28;865;-18
2023/02/28 12:33:54;;;;;;;;;;;;;;;27.84;24.88;101840.50;5057680;28;1043;-19
2023/02/28 12:36:21;;;;;;;;;;;;;;;28.82;24.02;101858.25;5053664;28;1071;-19
2023/02/28 12:38:48;;;;;;;;;;;;;;;29.11;23.47;101846.09;5048768;28;1194;-19
2023/02/28 12:41:14;;;;;;;;;;;;;;;28.96;23.78;101851.31;5056157;28;1906;-20
2023/02/28 12:44:00;;;;;;;;;;;;;;;29.18;23.37;101844.41;5056901;28;1103;-19
2023/02/28 12:46:29;;;;;;;;;;;;;;;29.29;23.18;101835.09;5057127;28;1109;-27
2023/02/28 12:48:58;;;;;;;;;;;;;;;28.13;24.64;101833.00;5056709;28;1098;-28
2023/02/28 12:51:24;;;;;;;;;;;;;;;28.47;24.24;101815.91;5057141;28;1167;-32
2023/02/28 12:53:50;;;;;;;;;;;;;;;28.72;23.64;101821.34;5057908;28;1023;-28